createdAt,value
2022-09-21T00:01:13.559Z,99.90
2022-09-21T00:03:44.225Z,99.90
2022-09-21T00:06:22.103Z,99.90
2022-09-21T00:08:50.234Z,99.90
2022-09-21T00:11:21.533Z,99.90
2022-09-21T00:13:52.014Z,99.90
2022-09-21T00:16:19.055Z,99.90
2022-09-21T00:18:45.999Z,99.90
2022-09-21T00:21:14.993Z,99.90
2022-09-21T00:23:43.079Z,99.90
2022-09-21T00:26:18.941Z,99.90
2022-09-21T00:28:46.339Z,99.90
2022-09-21T00:31:18.832Z,99.90
2022-09-21T00:33:46.076Z,99.90
2022-09-21T00:36:17.143Z,99.90
2022-09-21T00:38:44.997Z,99.90
2022-09-21T00:41:12.665Z,99.90
2022-09-21T00:44:44.379Z,99.90
2022-09-21T00:47:15.711Z,99.90
2022-09-21T00:49:51.688Z,99.90
2022-09-21T00:52:19.824Z,99.90
2022-09-21T00:57:15.638Z,99.90
2022-09-21T00:59:45.129Z,99.90
2022-09-21T01:02:12.388Z,99.90
2022-09-21T01:04:39.670Z,99.90
2022-09-21T01:07:12.408Z,99.90
2022-09-21T01:09:41.286Z,99.90
2022-09-21T01:12:59.448Z,99.90
2022-09-21T01:15:34.792Z,99.90
2022-09-21T01:18:29.349Z,99.90
2022-09-21T01:21:19.157Z,99.90
2022-09-21T01:23:46.136Z,99.90
2022-09-21T01:26:27.429Z,99.90
2022-09-21T01:29:12.445Z,99.90
2022-09-21T01:31:51.459Z,99.90
2022-09-21T01:34:39.213Z,99.90
2022-09-21T01:37:12.803Z,99.90
2022-09-21T01:39:42.125Z,99.90
2022-09-21T01:42:10.786Z,99.90
2022-09-21T01:44:40.484Z,99.90
2022-09-21T01:47:12.706Z,99.90
2022-09-21T01:49:50.780Z,99.90
2022-09-21T01:52:28.517Z,99.90
2022-09-21T01:55:03.977Z,99.90
2022-09-21T01:57:30.856Z,99.90
2022-09-21T02:00:00.407Z,99.90
2022-09-21T02:02:51.562Z,99.90
2022-09-21T02:05:20.464Z,99.90
2022-09-21T02:07:48.608Z,99.90
2022-09-21T02:10:24.781Z,99.90
2022-09-21T02:12:59.697Z,99.90
2022-09-21T02:15:51.643Z,99.90
2022-09-21T02:18:40.861Z,99.90
2022-09-21T02:21:22.312Z,99.90
2022-09-21T02:23:58.004Z,99.90
2022-09-21T02:26:36.160Z,99.90
2022-09-21T02:29:25.921Z,99.90
2022-09-21T02:32:05.291Z,99.90
2022-09-21T02:34:40.880Z,99.90
2022-09-21T02:37:31.896Z,99.90
2022-09-21T02:40:04.610Z,99.90
2022-09-21T02:42:40.806Z,99.90
2022-09-21T02:45:13.676Z,99.90
2022-09-21T02:47:59.138Z,99.90
2022-09-21T02:50:54.479Z,99.90
2022-09-21T02:53:27.381Z,99.90
2022-09-21T02:55:57.650Z,99.90
2022-09-21T02:58:27.131Z,99.90
2022-09-21T03:00:56.667Z,99.90
2022-09-21T03:03:24.945Z,99.90
2022-09-21T03:05:54.534Z,99.90
2022-09-21T03:08:22.547Z,99.90
2022-09-21T03:10:50.896Z,99.90
2022-09-21T03:13:18.953Z,99.90
2022-09-21T03:15:47.353Z,99.90
2022-09-21T03:18:15.213Z,99.90
2022-09-21T03:20:48.196Z,99.90
2022-09-21T03:23:15.126Z,99.90
2022-09-21T03:25:46.216Z,99.90
2022-09-21T03:28:14.799Z,99.90
2022-09-21T03:30:41.861Z,99.90
2022-09-21T03:33:09.325Z,99.90
2022-09-21T03:35:36.263Z,99.90
2022-09-21T03:38:03.403Z,99.90
2022-09-21T03:40:31.042Z,99.90
2022-09-21T03:42:58.396Z,99.90
2022-09-21T03:45:27.506Z,99.90
2022-09-21T03:47:59.004Z,99.90
2022-09-21T03:50:30.614Z,99.90
2022-09-21T03:52:58.496Z,99.90
2022-09-21T03:55:25.823Z,99.90
2022-09-21T03:57:53.199Z,99.90
2022-09-21T04:00:20.758Z,99.90
2022-09-21T04:02:48.004Z,99.90
2022-09-21T04:05:16.468Z,99.90
2022-09-21T04:07:45.960Z,99.90
2022-09-21T04:10:16.262Z,99.90
2022-09-21T04:12:44.404Z,99.90
2022-09-21T04:15:16.682Z,99.90
2022-09-21T04:17:43.641Z,99.90
2022-09-21T04:20:10.580Z,99.90
2022-09-21T04:22:42.708Z,99.90
2022-09-21T04:25:12.222Z,99.90
2022-09-21T04:27:39.495Z,99.90
2022-09-21T04:30:07.517Z,99.90
2022-09-21T04:32:34.828Z,99.90
2022-09-21T04:35:01.742Z,99.90
2022-09-21T04:37:28.760Z,99.90
2022-09-21T04:39:55.997Z,99.90
2022-09-21T04:42:23.436Z,99.90
2022-09-21T04:44:51.495Z,99.90
2022-09-21T04:47:19.477Z,99.90
2022-09-21T04:49:46.460Z,99.90
2022-09-21T04:52:18.340Z,99.90
2022-09-21T04:54:46.543Z,99.90
2022-09-21T04:57:14.485Z,99.90
2022-09-21T04:59:41.446Z,99.90
2022-09-21T05:02:08.946Z,99.90
2022-09-21T05:04:35.939Z,99.90
2022-09-21T05:07:03.274Z,99.90
2022-09-21T05:09:48.639Z,99.90
2022-09-21T05:12:15.581Z,99.90
2022-09-21T05:14:44.214Z,99.90
2022-09-21T05:17:12.527Z,99.90
2022-09-21T05:19:40.298Z,99.90
2022-09-21T05:22:07.589Z,99.90
2022-09-21T05:24:34.877Z,99.90
2022-09-21T05:27:02.422Z,99.90
2022-09-21T05:29:29.634Z,99.90
2022-09-21T05:32:08.276Z,99.90
2022-09-21T05:34:51.322Z,99.90
2022-09-21T05:37:45.992Z,99.90
2022-09-21T05:40:14.132Z,99.90
2022-09-21T05:42:41.883Z,99.90
2022-09-21T05:45:18.052Z,99.90
2022-09-21T05:48:06.178Z,99.90
2022-09-21T05:50:51.948Z,99.90
2022-09-21T05:53:43.829Z,99.90
2022-09-21T05:56:24.098Z,99.90
2022-09-21T05:59:00.846Z,99.90
2022-09-21T06:01:59.414Z,99.90
2022-09-21T06:04:26.595Z,99.90
2022-09-21T06:06:54.017Z,99.90
2022-09-21T06:09:21.052Z,99.90
2022-09-21T06:11:48.498Z,99.90
2022-09-21T06:14:15.453Z,99.90
2022-09-21T06:16:43.308Z,99.90
2022-09-21T06:19:13.911Z,99.90
2022-09-21T06:21:41.142Z,99.90
2022-09-21T06:24:08.207Z,99.90
2022-09-21T06:26:35.252Z,99.90
2022-09-21T06:29:02.163Z,99.90
2022-09-21T06:31:29.154Z,99.90
2022-09-21T06:33:56.574Z,99.90
2022-09-21T06:36:23.534Z,99.90
2022-09-21T06:38:50.431Z,99.90
2022-09-21T06:41:21.016Z,99.90
2022-09-21T06:43:48.586Z,99.90
2022-09-21T06:46:15.651Z,93.60
2022-09-21T06:48:42.630Z,93.50
2022-09-21T06:51:10.310Z,67.80
2022-09-21T06:53:37.327Z,55.10
2022-09-21T06:56:08.883Z,72.40
2022-09-21T06:58:37.901Z,66.60
2022-09-21T07:01:09.878Z,50.80
2022-09-21T07:03:38.497Z,40.00
2022-09-21T07:06:06.897Z,25.40
2022-09-21T07:11:22.124Z,28.10
2022-09-21T07:13:49.232Z,25.70
2022-09-21T07:16:16.670Z,13.90
2022-09-21T07:18:44.247Z,24.10
2022-09-21T07:21:12.171Z,21.00
2022-09-21T07:23:39.196Z,1.00
2022-09-21T07:26:12.244Z,1.00
2022-09-21T07:28:39.402Z,1.00
2022-09-21T07:31:12.293Z,1.00
2022-09-21T07:33:39.546Z,1.00
2022-09-21T07:36:10.602Z,1.00
2022-09-21T07:38:43.208Z,1.00
2022-09-21T07:41:13.460Z,1.00
2022-09-21T07:43:41.118Z,1.00
2022-09-21T07:46:10.539Z,1.00
2022-09-21T07:48:37.906Z,1.00
2022-09-21T07:51:07.042Z,1.00
2022-09-21T07:53:35.882Z,1.00
2022-09-21T07:56:04.803Z,1.00
2022-09-21T07:58:50.701Z,1.00
2022-09-21T08:01:18.205Z,1.00
2022-09-21T08:03:45.285Z,1.00
2022-09-21T08:06:12.260Z,1.00
2022-09-21T08:08:39.677Z,1.00
2022-09-21T08:11:07.430Z,1.00
2022-09-21T08:13:34.857Z,1.00
2022-09-21T08:16:03.059Z,1.00
2022-09-21T08:18:30.817Z,1.00
2022-09-21T08:21:01.041Z,1.00
2022-09-21T08:23:29.339Z,1.00
2022-09-21T08:26:00.984Z,1.00
2022-09-21T08:28:34.127Z,1.00
2022-09-21T08:31:02.689Z,1.00
2022-09-21T08:33:29.979Z,1.00
2022-09-21T08:35:59.439Z,1.00
2022-09-21T08:38:27.430Z,1.00
2022-09-21T08:40:55.382Z,1.00
2022-09-21T08:43:36.146Z,1.00
2022-09-21T08:46:09.930Z,1.00
2022-09-21T08:48:42.799Z,1.00
2022-09-21T08:51:16.083Z,1.00
2022-09-21T08:53:46.585Z,1.00
2022-09-21T08:56:15.417Z,99.90
2022-09-21T08:58:43.708Z,99.90
2022-09-21T09:01:39.319Z,1.00
2022-09-21T09:04:33.695Z,1.00
2022-09-21T09:07:18.763Z,99.90
2022-09-21T09:10:13.216Z,99.90
2022-09-21T09:13:13.706Z,1.00
2022-09-21T09:15:56.772Z,1.00
2022-09-21T09:18:55.039Z,99.90
2022-09-21T09:21:37.887Z,1.00
2022-09-21T09:24:04.778Z,99.90
2022-09-21T09:26:50.669Z,1.00
2022-09-21T09:29:34.012Z,99.90
2022-09-21T09:32:02.398Z,1.00
2022-09-21T09:34:40.278Z,99.90
2022-09-21T09:37:15.940Z,1.00
2022-09-21T09:39:47.721Z,1.00
2022-09-21T09:42:23.483Z,99.90
2022-09-21T09:45:34.492Z,22.00
2022-09-21T09:48:32.671Z,1.00
2022-09-21T09:50:59.646Z,1.00
2022-09-21T09:53:27.619Z,1.00
2022-09-21T09:55:57.039Z,1.00
2022-09-21T09:58:48.148Z,1.00
2022-09-21T10:01:38.204Z,1.00
2022-09-21T10:04:10.745Z,1.00
2022-09-21T10:06:43.652Z,1.00
2022-09-21T10:09:31.358Z,1.00
2022-09-21T10:12:08.117Z,1.00
2022-09-21T10:14:37.107Z,1.00
2022-09-21T10:17:08.501Z,1.00
2022-09-21T10:19:35.709Z,1.00
2022-09-21T10:22:04.948Z,1.00
2022-09-21T10:24:36.203Z,1.00
2022-09-21T10:27:11.764Z,1.00
2022-09-21T10:29:46.991Z,1.00
2022-09-21T10:32:15.323Z,1.00
2022-09-21T10:35:10.506Z,1.00
2022-09-21T10:37:41.884Z,1.00
2022-09-21T10:40:17.838Z,1.00
2022-09-21T10:42:45.021Z,1.00
2022-09-21T10:45:21.725Z,1.00
2022-09-21T10:48:13.130Z,1.00
2022-09-21T10:50:42.829Z,1.00
2022-09-21T10:53:09.772Z,1.00
2022-09-21T10:56:11.848Z,1.00
2022-09-21T10:58:40.221Z,1.00
2022-09-21T11:01:13.844Z,1.00
2022-09-21T11:04:07.104Z,1.00
2022-09-21T11:06:42.551Z,1.00
2022-09-21T11:09:39.495Z,1.00
2022-09-21T11:12:32.109Z,1.00
2022-09-21T11:15:23.385Z,1.00
2022-09-21T11:18:04.143Z,1.00
2022-09-21T11:20:47.131Z,1.00
2022-09-21T11:23:41.508Z,1.00
2022-09-21T11:26:11.537Z,1.00
2022-09-21T11:29:07.092Z,1.00
2022-09-21T11:31:34.080Z,1.00
2022-09-21T11:34:07.407Z,1.00
2022-09-21T11:37:11.138Z,1.00
2022-09-21T11:40:05.215Z,1.00
2022-09-21T11:43:01.760Z,1.00
2022-09-21T11:45:46.135Z,1.00
2022-09-21T11:48:31.862Z,1.00
2022-09-21T11:51:14.162Z,1.00
2022-09-21T11:54:16.068Z,1.00
2022-09-21T11:56:56.015Z,1.00
2022-09-21T11:59:50.904Z,1.00
2022-09-21T12:02:41.273Z,1.00
2022-09-21T12:05:35.408Z,1.00
2022-09-21T12:08:10.979Z,1.00
2022-09-21T12:10:51.480Z,1.00
2022-09-21T12:13:18.483Z,1.00
2022-09-21T12:15:51.119Z,1.00
2022-09-21T12:18:49.903Z,1.00
2022-09-21T12:21:22.563Z,1.00
2022-09-21T12:23:52.249Z,1.00
2022-09-21T12:26:24.345Z,1.00
2022-09-21T12:29:05.301Z,1.00
2022-09-21T12:31:37.757Z,1.00
2022-09-21T12:34:16.084Z,1.00
2022-09-21T12:37:19.019Z,1.00
2022-09-21T12:40:07.514Z,1.00
2022-09-21T12:42:43.303Z,1.00
2022-09-21T12:45:21.510Z,1.00
2022-09-21T12:48:08.873Z,1.00
2022-09-21T12:50:51.008Z,1.00
2022-09-21T12:53:21.695Z,1.00
2022-09-21T12:56:20.343Z,1.00
2022-09-21T12:59:24.876Z,1.00
2022-09-21T13:01:57.415Z,1.00
2022-09-21T13:04:49.958Z,1.00
2022-09-21T13:07:32.839Z,1.00
2022-09-21T13:10:15.837Z,1.00
2022-09-21T13:12:45.108Z,1.00
2022-09-21T13:15:30.451Z,1.00
2022-09-21T13:18:00.555Z,1.00
2022-09-21T13:20:32.935Z,1.00
2022-09-21T13:23:02.238Z,1.00
2022-09-21T13:25:32.663Z,1.00
2022-09-21T13:28:15.684Z,1.00
2022-09-21T13:30:45.389Z,1.00
2022-09-21T13:33:21.581Z,1.00
2022-09-21T13:35:51.234Z,1.00
2022-09-21T13:38:29.489Z,1.00
2022-09-21T13:41:19.526Z,1.00
2022-09-21T13:44:04.201Z,1.00
2022-09-21T13:46:38.062Z,1.00
2022-09-21T13:49:10.841Z,1.00
2022-09-21T13:52:01.821Z,1.00
2022-09-21T13:54:45.464Z,1.00
2022-09-21T13:57:24.136Z,1.00
2022-09-21T14:00:13.752Z,1.00
2022-09-21T14:02:54.897Z,1.00
2022-09-21T14:06:08.754Z,1.00
2022-09-21T14:08:49.327Z,1.00
2022-09-21T14:11:41.176Z,1.00
2022-09-21T14:14:33.960Z,1.00
2022-09-21T14:17:02.605Z,1.00
2022-09-21T14:19:33.272Z,1.00
2022-09-21T14:22:09.662Z,1.00
2022-09-21T14:24:45.483Z,1.00
2022-09-21T14:27:46.403Z,1.00
2022-09-21T14:30:20.331Z,1.00
2022-09-21T14:33:12.837Z,1.00
2022-09-21T14:35:47.564Z,1.00
2022-09-21T14:38:26.189Z,1.00
2022-09-21T14:41:01.860Z,1.00
2022-09-21T14:43:36.440Z,1.00
2022-09-21T14:46:10.274Z,1.00
2022-09-21T14:48:46.872Z,1.00
2022-09-21T14:51:38.365Z,1.00
2022-09-21T14:54:14.516Z,1.00
2022-09-21T14:56:55.630Z,1.00
2022-09-21T14:59:34.552Z,1.00
2022-09-21T15:02:11.343Z,1.00
2022-09-21T15:05:01.445Z,1.00
2022-09-21T15:08:00.007Z,1.00
2022-09-21T15:10:56.415Z,1.00
2022-09-21T15:13:29.774Z,1.00
2022-09-21T15:16:18.083Z,1.00
2022-09-21T15:18:51.398Z,1.00
2022-09-21T15:21:28.195Z,1.00
2022-09-21T15:23:55.683Z,1.00
2022-09-21T15:26:33.029Z,1.00
2022-09-21T15:29:09.778Z,1.00
2022-09-21T15:31:40.609Z,1.00
2022-09-21T15:34:09.218Z,1.00
2022-09-21T15:36:40.229Z,1.00
2022-09-21T15:39:07.668Z,1.00
2022-09-21T15:41:45.015Z,1.00
2022-09-21T15:44:32.766Z,1.00
2022-09-21T15:47:03.368Z,1.00
2022-09-21T15:49:30.621Z,1.00
2022-09-21T15:52:13.061Z,1.00
2022-09-21T15:54:46.178Z,1.00
2022-09-21T15:57:29.570Z,1.00
2022-09-21T15:59:56.604Z,1.00
2022-09-21T16:02:26.588Z,1.00
2022-09-21T16:04:53.947Z,1.00
2022-09-21T16:07:30.589Z,1.00
2022-09-21T16:09:57.653Z,1.00
2022-09-21T16:12:39.611Z,1.00
2022-09-21T16:15:17.752Z,1.00
2022-09-21T16:17:58.533Z,1.00
2022-09-21T16:20:45.832Z,1.00
2022-09-21T16:23:19.372Z,1.00
2022-09-21T16:25:55.044Z,1.00
2022-09-21T16:28:22.573Z,1.00
2022-09-21T16:30:51.488Z,1.00
2022-09-21T16:33:49.061Z,1.00
2022-09-21T16:36:34.103Z,1.00
2022-09-21T16:39:12.781Z,1.00
2022-09-21T16:41:48.658Z,1.00
2022-09-21T16:44:22.842Z,1.00
2022-09-21T16:47:01.830Z,1.00
2022-09-21T16:49:32.763Z,1.00
2022-09-21T16:52:00.091Z,1.00
2022-09-21T16:54:27.784Z,1.00
2022-09-21T16:56:57.618Z,1.00
2022-09-21T16:59:25.441Z,1.00
2022-09-21T17:01:56.552Z,1.00
2022-09-21T17:04:26.930Z,1.00
2022-09-21T17:06:55.426Z,1.00
2022-09-21T17:09:33.882Z,1.00
2022-09-21T17:12:03.178Z,1.00
2022-09-21T17:14:40.040Z,1.00
2022-09-21T17:17:15.064Z,1.00
2022-09-21T17:19:42.287Z,1.00
2022-09-21T17:22:17.320Z,1.00
2022-09-21T17:24:50.856Z,1.00
2022-09-21T17:27:20.267Z,1.00
2022-09-21T17:29:48.508Z,1.00
2022-09-21T17:32:17.978Z,1.00
2022-09-21T17:34:46.124Z,1.00
2022-09-21T17:37:13.140Z,1.00
2022-09-21T17:39:41.785Z,1.00
2022-09-21T17:42:19.086Z,1.00
2022-09-21T17:45:13.639Z,1.00
2022-09-21T17:47:41.653Z,1.00
2022-09-21T17:50:20.980Z,1.00
2022-09-21T17:53:07.016Z,1.00
2022-09-21T17:55:34.251Z,1.00
2022-09-21T17:58:23.439Z,1.00
2022-09-21T18:01:04.377Z,1.00
2022-09-21T18:03:36.066Z,1.00
2022-09-21T18:06:03.873Z,1.00
2022-09-21T18:08:36.285Z,1.00
2022-09-21T18:11:26.550Z,1.00
2022-09-21T18:14:11.332Z,1.00
2022-09-21T18:16:53.308Z,5.80
2022-09-21T18:19:35.371Z,32.10
2022-09-21T18:22:34.739Z,33.40
2022-09-21T18:25:12.195Z,41.40
2022-09-21T18:27:39.374Z,94.20
2022-09-21T18:30:08.030Z,99.90
2022-09-21T18:32:53.815Z,99.90
2022-09-21T18:35:58.672Z,99.90
2022-09-21T18:39:05.225Z,99.90
2022-09-21T18:41:46.368Z,99.90
2022-09-21T18:44:30.648Z,99.90
2022-09-21T18:47:12.556Z,99.90
2022-09-21T18:50:15.171Z,99.90
2022-09-21T18:52:47.541Z,99.90
2022-09-21T18:55:41.279Z,99.90
2022-09-21T18:58:10.499Z,99.90
2022-09-21T19:00:37.574Z,99.90
2022-09-21T19:03:17.750Z,99.90
2022-09-21T19:06:27.466Z,1.00
2022-09-21T19:09:06.244Z,1.00
2022-09-21T19:11:51.864Z,1.00
2022-09-21T19:14:47.696Z,1.00
2022-09-21T19:17:35.792Z,1.00
2022-09-21T19:20:33.359Z,1.00
2022-09-21T19:23:06.347Z,1.00
2022-09-21T19:25:53.545Z,31.70
2022-09-21T19:29:02.190Z,99.90
2022-09-21T19:31:29.727Z,99.90
2022-09-21T19:33:56.794Z,99.90
2022-09-21T19:36:24.422Z,99.90
2022-09-21T19:38:51.775Z,99.90
2022-09-21T19:41:35.324Z,99.90
2022-09-21T19:44:29.800Z,99.90
2022-09-21T19:47:16.692Z,1.00
2022-09-21T19:49:50.830Z,1.00
2022-09-21T19:52:19.565Z,1.00
2022-09-21T19:55:04.999Z,1.00
2022-09-21T19:57:52.226Z,1.00
2022-09-21T20:00:19.453Z,1.00
2022-09-21T20:03:05.954Z,1.00
2022-09-21T20:05:35.279Z,1.00
2022-09-21T20:08:24.688Z,15.10
2022-09-21T20:10:54.647Z,99.90
2022-09-21T20:13:38.944Z,1.00
2022-09-21T20:16:40.342Z,1.00
2022-09-21T20:19:18.447Z,1.00
2022-09-21T20:21:47.281Z,1.00
2022-09-21T20:24:20.240Z,99.90
2022-09-21T20:26:51.045Z,1.00
2022-09-21T20:29:19.733Z,1.00
2022-09-21T20:31:49.050Z,97.90
2022-09-21T20:34:15.987Z,1.00
2022-09-21T20:36:43.108Z,1.00
2022-09-21T20:39:10.445Z,1.00
2022-09-21T20:41:38.075Z,1.00
2022-09-21T20:44:05.060Z,1.00
2022-09-21T20:46:32.085Z,1.00
2022-09-21T20:49:05.458Z,1.00
2022-09-21T20:51:36.129Z,1.00
2022-09-21T20:54:03.960Z,99.90
2022-09-21T20:56:31.594Z,1.00
2022-09-21T20:58:59.430Z,99.90
2022-09-21T21:01:27.139Z,99.90
2022-09-21T21:04:01.818Z,1.00
2022-09-21T21:06:31.314Z,99.90
2022-09-21T21:08:58.585Z,73.10
2022-09-21T21:11:28.193Z,1.00
2022-09-21T21:13:56.231Z,1.00
2022-09-21T21:16:23.657Z,99.90
2022-09-21T21:18:50.913Z,1.00
2022-09-21T21:21:17.957Z,99.90
2022-09-21T21:24:07.810Z,1.00
2022-09-21T21:27:00.189Z,99.90
2022-09-21T21:29:22.534Z,71.40
2022-09-21T21:31:49.923Z,1.00
2022-09-21T21:34:17.073Z,1.00
2022-09-21T21:36:43.989Z,1.00
2022-09-21T21:39:10.972Z,1.00
2022-09-21T21:41:37.979Z,99.90
2022-09-21T21:44:04.951Z,1.00
2022-09-21T21:46:31.992Z,99.90
2022-09-21T21:48:58.983Z,1.00
2022-09-21T21:51:25.991Z,1.00
2022-09-21T21:53:52.934Z,1.00
2022-09-21T21:56:22.801Z,1.00
2022-09-21T21:58:54.356Z,99.90
2022-09-21T22:01:24.763Z,99.90
2022-09-21T22:03:57.741Z,1.00
2022-09-21T22:06:26.088Z,1.00
2022-09-21T22:08:54.410Z,1.00
2022-09-21T22:11:22.402Z,1.00
2022-09-21T22:13:50.463Z,94.00
2022-09-21T22:16:24.269Z,99.90
2022-09-21T22:18:52.598Z,99.90
2022-09-21T22:21:22.254Z,99.90
2022-09-21T22:24:00.740Z,99.90
2022-09-21T22:26:29.403Z,99.90
2022-09-21T22:28:59.435Z,99.90
2022-09-21T22:31:31.883Z,99.90
2022-09-21T22:33:59.766Z,99.90
2022-09-21T22:36:32.263Z,99.90
2022-09-21T22:38:59.981Z,99.90
2022-09-21T22:41:30.585Z,99.90
2022-09-21T22:43:59.472Z,99.90
2022-09-21T22:46:28.247Z,99.90
2022-09-21T22:48:55.324Z,99.90
2022-09-21T22:51:22.786Z,99.90
2022-09-21T22:53:51.110Z,1.00
2022-09-21T22:56:23.117Z,1.00
2022-09-21T22:58:53.438Z,1.00
2022-09-21T23:01:25.538Z,1.00
2022-09-21T23:03:55.437Z,1.00
2022-09-21T23:06:26.641Z,1.00
2022-09-21T23:08:55.340Z,1.00
2022-09-21T23:11:34.844Z,99.90
2022-09-21T23:14:02.005Z,99.90
2022-09-21T23:16:29.953Z,99.90
2022-09-21T23:18:57.999Z,99.90
2022-09-21T23:21:27.659Z,99.90
2022-09-21T23:24:05.456Z,99.90
2022-09-21T23:26:34.080Z,99.90
2022-09-21T23:29:09.006Z,99.90
2022-09-21T23:31:36.039Z,99.90
2022-09-21T23:34:08.587Z,99.90
2022-09-21T23:36:36.662Z,1.00
2022-09-21T23:39:06.183Z,1.00
2022-09-21T23:41:35.932Z,1.00
2022-09-21T23:44:04.161Z,1.00
2022-09-21T23:46:33.792Z,1.00
2022-09-21T23:49:01.131Z,1.00
2022-09-21T23:51:30.121Z,1.00
2022-09-21T23:53:58.237Z,1.00
2022-09-21T23:56:25.787Z,1.00
2022-09-21T23:58:53.212Z,1.00
